createdAt,value
2017-06-17T00:00:48.811Z,72.8
2017-06-17T00:01:48.047Z,72.8
2017-06-17T00:02:46.842Z,72.9
2017-06-17T00:03:46.569Z,72.8
2017-06-17T00:04:45.373Z,73
2017-06-17T00:05:45.106Z,73
2017-06-17T00:06:44.348Z,73.1
2017-06-17T00:07:43.578Z,73.1
2017-06-17T00:08:42.879Z,73
2017-06-17T00:09:42.105Z,73.1
2017-06-17T00:10:41.343Z,73.2
2017-06-17T00:11:40.572Z,73.2
2017-06-17T00:12:39.806Z,73.4
2017-06-17T00:13:39.032Z,73.3
2017-06-17T00:14:38.150Z,73.4
2017-06-17T00:15:37.408Z,73.3
2017-06-17T00:16:36.641Z,73.4
2017-06-17T00:17:36.140Z,73.5
2017-06-17T00:18:35.252Z,73.5
2017-06-17T00:21:32.760Z,73.3
2017-06-17T00:22:32.382Z,73.3
2017-06-17T00:23:31.619Z,73.2
2017-06-17T00:24:30.857Z,73.4
2017-06-17T00:25:30.087Z,73.3
2017-06-17T00:26:29.320Z,73.3
2017-06-17T00:27:28.432Z,73.1
2017-06-17T00:28:27.741Z,73.2
2017-06-17T00:29:26.978Z,73.3
2017-06-17T00:30:26.208Z,73.2
2017-06-17T00:31:25.706Z,73.1
2017-06-17T00:32:24.819Z,73.1
2017-06-17T00:33:24.056Z,73.2
2017-06-17T00:34:23.167Z,73.2
2017-06-17T00:35:22.667Z,73.2
2017-06-17T00:36:21.784Z,73.3
2017-06-17T00:37:21.091Z,73.4
2017-06-17T00:38:20.319Z,73.5
2017-06-17T00:40:18.943Z,73.6
2017-06-17T00:41:18.183Z,73.6
2017-06-17T00:42:17.413Z,73.7
2017-06-17T00:43:16.533Z,73.8
2017-06-17T00:44:15.763Z,73.8
2017-06-17T00:45:14.871Z,73.9
2017-06-17T00:46:14.105Z,73.8
2017-06-17T00:47:13.339Z,73.9
2017-06-17T00:48:13.070Z,74.1
2017-06-17T00:49:12.066Z,74.1
2017-06-17T00:50:11.181Z,74.1
2017-06-17T00:51:10.804Z,74.1
2017-06-17T00:52:09.921Z,74.2
2017-06-17T00:53:09.034Z,74.3
2017-06-17T00:54:08.264Z,74.4
2017-06-17T00:55:07.375Z,74.5
2017-06-17T00:56:06.876Z,74.6
2017-06-17T00:57:05.994Z,74.7
2017-06-17T00:58:05.179Z,74.6
2017-06-17T00:59:04.791Z,74.6
2017-06-17T01:00:04.021Z,74.7
2017-06-17T01:01:03.136Z,74.7
2017-06-17T01:02:02.359Z,74.9
2017-06-17T01:03:01.470Z,75
2017-06-17T01:04:00.652Z,75
2017-06-17T01:04:59.883Z,75.1
2017-06-17T01:05:59.107Z,75
2017-06-17T01:06:58.217Z,75.1
2017-06-17T01:07:57.952Z,75
2017-06-17T01:08:57.073Z,75.1
2017-06-17T01:09:56.254Z,75
2017-06-17T01:10:55.489Z,75.1
2017-06-17T01:11:54.673Z,75.3
2017-06-17T01:12:54.178Z,75.3
2017-06-17T01:13:53.407Z,75.4
2017-06-17T01:15:52.022Z,75.5
2017-06-17T01:16:51.238Z,75.8
2017-06-17T01:17:50.468Z,76
2017-06-17T01:18:49.702Z,75.8
2017-06-17T01:19:48.822Z,75.9
2017-06-17T01:20:48.130Z,76
2017-06-17T01:21:47.366Z,76.2
2017-06-17T01:22:46.598Z,76.1
2017-06-17T01:23:45.833Z,76.2
2017-06-17T01:24:44.953Z,76.1
2017-06-17T01:25:44.185Z,76
2017-06-17T01:26:43.419Z,76.1
2017-06-17T01:27:42.649Z,76.1
2017-06-17T01:28:41.880Z,76.2
2017-06-17T01:29:41.180Z,76.4
2017-06-17T01:30:40.410Z,76.5
2017-06-17T01:31:10.948Z,76.5
2017-06-17T01:31:41.493Z,76.5
2017-06-17T01:32:39.130Z,76.5
2017-06-17T01:33:38.359Z,76.7
2017-06-17T01:34:37.356Z,76.6
2017-06-17T01:35:36.475Z,76.7
2017-06-17T01:36:35.724Z,76.7
2017-06-17T01:37:35.348Z,76.9
2017-06-17T01:38:34.576Z,77
2017-06-17T01:39:33.807Z,77
2017-06-17T01:41:31.925Z,77.1
2017-06-17T01:42:31.539Z,77.1
2017-06-17T01:43:30.658Z,77.3
2017-06-17T01:44:29.888Z,77.1
2017-06-17T01:45:29.216Z,50.9
2017-06-17T01:46:28.522Z,77.6
2017-06-17T01:47:27.765Z,77.4
2017-06-17T01:48:26.869Z,77.4
2017-06-17T01:49:26.129Z,77.4
2017-06-17T01:50:25.243Z,77.5
2017-06-17T01:51:24.477Z,77.6
2017-06-17T01:52:23.722Z,77.5
2017-06-17T01:53:23.105Z,77.5
2017-06-17T01:54:22.217Z,77.5
2017-06-17T01:55:21.331Z,77.5
2017-06-17T01:56:20.560Z,77.4
2017-06-17T01:58:19.064Z,77.5
2017-06-17T01:59:18.655Z,77.6
2017-06-17T02:00:17.904Z,77.7
2017-06-17T02:01:17.132Z,77.7
2017-06-17T02:02:16.244Z,77.8
2017-06-17T02:03:15.472Z,77.9
2017-06-17T02:04:14.703Z,78
2017-06-17T02:05:13.936Z,78
2017-06-17T02:06:13.166Z,78
2017-06-17T02:07:12.280Z,78
2017-06-17T02:08:11.405Z,77.8
2017-06-17T02:10:10.021Z,77.9
2017-06-17T02:11:09.132Z,77.7
2017-06-17T02:12:08.633Z,77.7
2017-06-17T02:13:07.868Z,77.6
2017-06-17T02:14:07.098Z,77.6
2017-06-17T02:15:06.329Z,77.5
2017-06-17T02:17:05.408Z,77.6
2017-06-17T02:18:04.020Z,77.7
2017-06-17T02:19:03.286Z,77.8
2017-06-17T02:20:02.518Z,77.6
2017-06-17T02:21:01.815Z,77.7
2017-06-17T02:22:01.500Z,77.9
2017-06-17T02:22:59.999Z,77.8
2017-06-17T02:23:59.225Z,77.8
2017-06-17T02:25:58.276Z,77.9
2017-06-17T02:26:56.770Z,78
2017-06-17T02:27:56.383Z,78.2
2017-06-17T02:28:55.502Z,78.1
2017-06-17T02:29:54.803Z,78
2017-06-17T02:30:54.032Z,78.1
2017-06-17T02:31:53.263Z,78.1
2017-06-17T02:32:52.501Z,78.1
2017-06-17T02:33:51.617Z,78
2017-06-17T02:34:50.860Z,77.9
2017-06-17T02:36:49.366Z,78
2017-06-17T02:37:48.605Z,77.9
2017-06-17T02:38:48.099Z,78
2017-06-17T02:39:47.330Z,78
2017-06-17T02:40:46.558Z,77.9
2017-06-17T02:41:45.786Z,77.8
2017-06-17T02:42:45.016Z,77.8
2017-06-17T02:44:43.126Z,78
2017-06-17T02:45:42.228Z,77.9
2017-06-17T02:47:40.779Z,77.8
2017-06-17T02:48:40.074Z,77.8
2017-06-17T02:49:39.295Z,78
2017-06-17T02:50:38.582Z,77.9
2017-06-17T02:51:37.820Z,77.7
2017-06-17T02:52:37.040Z,77.7
2017-06-17T02:53:36.256Z,77.8
2017-06-17T02:54:35.473Z,77.9
2017-06-17T02:55:34.579Z,77.8
2017-06-17T02:56:33.830Z,77.8
2017-06-17T02:57:33.053Z,77.8
2017-06-17T02:58:32.367Z,77.7
2017-06-17T02:59:31.589Z,77.7
2017-06-17T03:00:30.813Z,77.9
2017-06-17T03:01:30.448Z,77.7
2017-06-17T03:02:29.686Z,77.7
2017-06-17T03:03:28.801Z,77.8
2017-06-17T03:04:28.036Z,77.6
2017-06-17T03:05:27.267Z,77.6
2017-06-17T03:06:26.373Z,77.5
2017-06-17T03:08:24.991Z,77.5
2017-06-17T03:09:24.211Z,77.5
2017-06-17T03:10:23.313Z,77.4
2017-06-17T03:11:22.297Z,77.4
2017-06-17T03:12:21.909Z,77.4
2017-06-17T03:13:21.130Z,77.4
2017-06-17T03:14:20.357Z,77.5
2017-06-17T03:15:19.457Z,77.6
2017-06-17T03:16:18.565Z,77.7
2017-06-17T03:18:17.606Z,77.8
2017-06-17T03:19:16.327Z,77.8
2017-06-17T03:20:15.432Z,77.8
2017-06-17T03:21:14.543Z,77.9
2017-06-17T03:22:13.975Z,77.8
2017-06-17T03:24:12.466Z,77.8
2017-06-17T03:25:11.716Z,77.8
2017-06-17T03:26:10.933Z,77.8
2017-06-17T03:27:10.195Z,77.8
2017-06-17T03:28:09.417Z,77.8
2017-06-17T03:29:08.520Z,77.8
2017-06-17T03:30:07.748Z,77.7
2017-06-17T03:31:06.972Z,77.7
2017-06-17T03:32:06.148Z,77.6
2017-06-17T03:33:05.369Z,77.7
2017-06-17T03:34:04.973Z,77.7
2017-06-17T03:35:04.193Z,77.5
2017-06-17T03:36:03.416Z,77.7
2017-06-17T03:37:02.644Z,77.8
2017-06-17T03:38:01.749Z,77.8
2017-06-17T03:39:00.968Z,77.8
2017-06-17T03:40:00.187Z,77.8
2017-06-17T03:40:59.288Z,77.8
2017-06-17T03:41:58.505Z,77.7
2017-06-17T03:42:57.804Z,77.7
2017-06-17T03:43:57.024Z,77.7
2017-06-17T03:44:56.248Z,77.6
2017-06-17T03:45:55.467Z,77.7
2017-06-17T03:46:54.569Z,77.8
2017-06-17T03:47:53.790Z,77.8
2017-06-17T03:48:53.408Z,77.9
2017-06-17T03:49:52.517Z,77.8
2017-06-17T03:50:51.382Z,77.9
2017-06-17T03:51:51.102Z,77.8
2017-06-17T03:52:50.091Z,77.8
2017-06-17T03:53:49.309Z,77.9
2017-06-17T03:54:48.536Z,78.1
2017-06-17T03:55:47.645Z,78
2017-06-17T03:56:46.865Z,78.1
2017-06-17T03:57:46.088Z,78.1
2017-06-17T03:59:44.581Z,78
2017-06-17T04:00:43.808Z,78.2
2017-06-17T04:01:43.026Z,78.2
2017-06-17T04:02:42.248Z,78.3
2017-06-17T04:03:41.469Z,78.2
2017-06-17T04:04:40.683Z,78.3
2017-06-17T04:05:39.904Z,78.3
2017-06-17T04:06:39.127Z,78.6
2017-06-17T04:07:38.346Z,78.6
2017-06-17T04:08:38.077Z,78.4
2017-06-17T04:09:37.296Z,78.6
2017-06-17T04:10:36.519Z,78.7
2017-06-17T04:11:35.739Z,78.5
2017-06-17T04:12:35.530Z,78.6
2017-06-17T04:13:33.633Z,78.5
2017-06-17T04:14:33.121Z,78.4
2017-06-17T04:15:32.342Z,78.4
2017-06-17T04:16:31.563Z,78.5
2017-06-17T04:17:30.784Z,78.6
2017-06-17T04:19:29.394Z,78.5
2017-06-17T04:20:28.497Z,78.5
2017-06-17T04:21:27.601Z,78.4
2017-06-17T04:22:26.825Z,78.4
2017-06-17T04:23:26.054Z,78.4
2017-06-17T04:24:25.659Z,78.4
2017-06-17T04:25:24.642Z,78.5
2017-06-17T04:26:23.742Z,78.2
2017-06-17T04:28:22.232Z,78.4
2017-06-17T04:29:21.466Z,78.3
2017-06-17T04:30:20.959Z,78.3
2017-06-17T04:31:20.254Z,78.2
2017-06-17T04:33:18.446Z,78.4
2017-06-17T04:34:17.666Z,78.3
2017-06-17T04:35:16.884Z,78.3
2017-06-17T04:36:16.106Z,78.3
2017-06-17T04:38:14.598Z,78.3
2017-06-17T04:39:13.818Z,78.3
2017-06-17T04:40:12.921Z,78.2
2017-06-17T04:41:12.529Z,78.2
2017-06-17T04:42:11.751Z,78
2017-06-17T04:43:10.973Z,77.8
2017-06-17T04:44:10.191Z,77.7
2017-06-17T04:45:09.298Z,77.8
2017-06-17T04:46:08.528Z,78.1
2017-06-17T04:47:07.638Z,78.2
2017-06-17T04:49:06.252Z,77.6
2017-06-17T04:50:05.234Z,77.6
2017-06-17T04:51:04.842Z,77.8
2017-06-17T04:52:03.946Z,78.1
2017-06-17T04:53:03.048Z,77.9
2017-06-17T04:54:02.268Z,77.7
2017-06-17T05:01:56.089Z,77.8
2017-06-17T05:05:52.975Z,77.8
2017-06-17T05:06:52.232Z,77.6
2017-06-17T05:07:51.458Z,77.8
2017-06-17T05:08:50.680Z,77.5
2017-06-17T05:09:49.918Z,77.6
2017-06-17T05:10:49.140Z,77.7
2017-06-17T05:11:48.361Z,77.9
2017-06-17T05:12:47.582Z,77.9
2017-06-17T05:13:46.873Z,78
2017-06-17T05:14:46.110Z,78
2017-06-17T05:16:44.721Z,77.8
2017-06-17T05:18:43.338Z,77.3
2017-06-17T05:19:42.621Z,77.4
2017-06-17T05:20:41.839Z,77.6
2017-06-17T05:21:41.059Z,77.4
2017-06-17T05:22:40.280Z,77.3
2017-06-17T05:23:39.582Z,77.4
2017-06-17T05:25:37.572Z,77.7
2017-06-17T05:26:37.297Z,77.7
2017-06-17T05:27:36.526Z,77.5
2017-06-17T05:28:35.744Z,77.5
2017-06-17T05:29:34.964Z,77.4
2017-06-17T05:30:34.190Z,77.3
2017-06-17T05:31:33.062Z,77.5
2017-06-17T05:32:32.288Z,77.4
2017-06-17T05:34:30.906Z,77.6
2017-06-17T05:35:30.134Z,77.8
2017-06-17T05:36:29.237Z,77.6
2017-06-17T05:37:28.457Z,77.7
2017-06-17T05:38:27.946Z,77.8
2017-06-17T05:39:27.168Z,77.7
2017-06-17T05:40:26.276Z,77.5
2017-06-17T05:42:24.888Z,77.6
2017-06-17T05:43:23.873Z,77.6
2017-06-17T05:46:21.752Z,77.5
2017-06-17T05:50:18.644Z,77.4
2017-06-17T05:51:17.926Z,77.4
2017-06-17T05:52:17.151Z,77.4
2017-06-17T05:54:15.764Z,77.6
2017-06-17T05:55:15.558Z,77.3
2017-06-17T05:56:14.275Z,77.4
2017-06-17T05:57:13.493Z,77.5
2017-06-17T05:58:12.716Z,77.2
2017-06-17T05:59:11.967Z,77.4
2017-06-17T06:00:10.952Z,77.5
2017-06-17T06:01:10.173Z,77.7
2017-06-17T06:02:09.283Z,77.7
2017-06-17T06:03:08.774Z,77.7
2017-06-17T06:04:08.005Z,77.8
2017-06-17T06:05:07.111Z,77.7
2017-06-17T06:07:05.815Z,77.8
2017-06-17T06:08:05.042Z,77.7
2017-06-17T06:10:03.417Z,77.5
2017-06-17T06:11:02.645Z,77.5
2017-06-17T06:12:01.867Z,77.4
2017-06-17T06:13:00.865Z,77.4
2017-06-17T06:14:00.086Z,77.3
2017-06-17T06:14:30.631Z,77.3
2017-06-17T06:15:01.164Z,77.4
2017-06-17T06:15:58.772Z,77.9
2017-06-17T06:16:58.053Z,77.4
2017-06-17T06:19:55.557Z,77.2
2017-06-17T06:20:54.664Z,77.3
2017-06-17T06:21:53.908Z,77.3
2017-06-17T06:22:53.518Z,77.3
2017-06-17T06:23:52.625Z,77.1
2017-06-17T06:24:51.844Z,76.9
2017-06-17T06:25:51.140Z,76.9
2017-06-17T06:26:50.366Z,76.8
2017-06-17T06:27:49.474Z,77.1
2017-06-17T06:28:48.694Z,76.8
2017-06-17T06:29:47.920Z,76.8
2017-06-17T06:30:47.151Z,76.9
2017-06-17T06:31:46.370Z,76.3
2017-06-17T06:32:45.869Z,76.1
2017-06-17T06:34:43.970Z,76.3
2017-06-17T06:35:43.696Z,76.3
2017-06-17T06:36:42.926Z,76.5
2017-06-17T06:37:42.148Z,76.6
2017-06-17T06:38:41.374Z,76.7
2017-06-17T06:39:40.176Z,76.7
2017-06-17T06:40:39.397Z,76.6
2017-06-17T06:41:39.005Z,76.5
2017-06-17T06:42:38.016Z,76.6
2017-06-17T06:43:08.563Z,76.6
2017-06-17T06:43:39.000Z,76.6
2017-06-17T06:44:09.418Z,76.6
2017-06-17T06:44:39.716Z,76.8
2017-06-17T06:45:10.134Z,76.8
2017-06-17T06:47:34.202Z,77.1
2017-06-17T06:48:33.424Z,77.2
2017-06-17T06:49:32.644Z,77.3
2017-06-17T06:50:31.863Z,77.3
2017-06-17T06:51:31.093Z,77.3
2017-06-17T06:52:30.356Z,77.2
2017-06-17T06:53:29.574Z,77
2017-06-17T06:54:28.801Z,76.8
2017-06-17T06:55:27.900Z,77
2017-06-17T06:56:27.624Z,77.4
2017-06-17T06:57:26.730Z,76.9
2017-06-17T06:58:25.828Z,76.6
2017-06-17T06:59:25.048Z,76.6
2017-06-17T07:00:24.266Z,76.4
2017-06-17T07:01:23.491Z,76.6
2017-06-17T07:02:23.131Z,76.4
2017-06-17T07:03:21.847Z,76.2
2017-06-17T07:04:21.572Z,76.5
2017-06-17T07:05:20.674Z,76.3
2017-06-17T07:06:19.904Z,76.3
2017-06-17T07:07:19.016Z,76.3
2017-06-17T07:08:18.125Z,76.3
2017-06-17T07:09:17.348Z,76.2
2017-06-17T07:10:16.566Z,76.1
2017-06-17T07:11:16.171Z,75.7
2017-06-17T07:12:15.451Z,75.7
2017-06-17T07:13:14.555Z,75.6
2017-06-17T07:15:13.171Z,75.5
2017-06-17T07:17:11.279Z,75.5
2017-06-17T07:18:10.881Z,75.6
2017-06-17T07:20:09.554Z,75.7
2017-06-17T07:21:08.165Z,75.7
2017-06-17T07:23:06.773Z,75.7
2017-06-17T07:24:05.881Z,76
2017-06-17T07:25:05.106Z,75.8
2017-06-17T07:26:04.716Z,75.5
2017-06-17T07:27:03.821Z,75.2
2017-06-17T07:28:03.043Z,75.3
2017-06-17T07:29:02.144Z,75.4
2017-06-17T07:30:01.363Z,75.3
2017-06-17T07:31:59.871Z,74.7
2017-06-17T07:32:59.093Z,74.6
2017-06-17T07:33:58.316Z,74.1
2017-06-17T07:34:57.920Z,74.2
2017-06-17T07:35:57.137Z,74.1
2017-06-17T07:36:56.237Z,74.2
2017-06-17T07:37:55.343Z,74
2017-06-17T07:38:54.832Z,73.8
2017-06-17T07:40:53.323Z,73.9
2017-06-17T07:41:52.554Z,73.9
2017-06-17T07:42:51.777Z,74
2017-06-17T07:44:50.380Z,74.3
2017-06-17T07:45:49.486Z,74.1
2017-06-17T07:46:48.785Z,73.7
2017-06-17T07:47:48.005Z,73.6
2017-06-17T07:48:47.225Z,73.8
2017-06-17T07:49:46.453Z,73.5
2017-06-17T07:50:45.673Z,73.8
2017-06-17T07:51:44.780Z,73.2
2017-06-17T07:52:43.884Z,73.1
2017-06-17T07:54:42.495Z,73.2
2017-06-17T07:55:41.978Z,73.2
2017-06-17T07:56:41.206Z,73
2017-06-17T07:57:40.308Z,73
2017-06-17T07:58:40.182Z,73.1
2017-06-17T07:59:38.903Z,72.9
2017-06-17T08:00:38.121Z,72.6
2017-06-17T08:01:37.345Z,72.2
2017-06-17T08:02:36.457Z,72.7
2017-06-17T08:03:35.675Z,72.7
2017-06-17T08:04:34.900Z,72.2
2017-06-17T08:05:34.144Z,72.1
2017-06-17T08:06:33.344Z,72.1
2017-06-17T08:07:32.946Z,71.9
2017-06-17T08:08:32.250Z,71.7
2017-06-17T08:09:31.466Z,71.6
2017-06-17T08:10:30.570Z,71.8
2017-06-17T08:11:29.788Z,71.7
2017-06-17T08:12:29.015Z,71.7
2017-06-17T08:13:28.128Z,71.8
2017-06-17T08:14:27.351Z,71.5
2017-06-17T08:16:25.957Z,71.7
2017-06-17T08:17:25.182Z,71.9
2017-06-17T08:18:24.282Z,71.4
2017-06-17T08:19:24.002Z,71.1
2017-06-17T08:20:23.166Z,71.1
2017-06-17T08:21:22.390Z,71.2
2017-06-17T08:22:21.609Z,71.3
2017-06-17T08:23:20.713Z,70.8
2017-06-17T08:24:19.948Z,70.6
2017-06-17T08:25:19.127Z,70.9
2017-06-17T08:26:18.856Z,70.8
2017-06-17T08:27:17.858Z,70.4
2017-06-17T08:28:17.076Z,70.1
2017-06-17T08:29:16.309Z,69.8
2017-06-17T08:30:15.418Z,69.9
2017-06-17T08:32:13.912Z,69.7
2017-06-17T08:33:13.293Z,69.3
2017-06-17T08:35:12.167Z,69.8
2017-06-17T08:37:10.268Z,69.5
2017-06-17T08:38:09.878Z,69
2017-06-17T08:39:08.981Z,69.3
2017-06-17T08:40:08.196Z,69
2017-06-17T08:41:07.412Z,68.8
2017-06-17T08:42:06.521Z,68.9
2017-06-17T08:43:06.204Z,69.1
2017-06-17T08:44:05.185Z,68.7
2017-06-17T08:45:04.679Z,68.4
2017-06-17T08:46:03.910Z,68.9
2017-06-17T08:47:03.135Z,68.5
2017-06-17T08:48:02.237Z,68.5
2017-06-17T08:49:01.469Z,68.1
2017-06-17T08:50:00.694Z,68
2017-06-17T08:50:31.234Z,68
2017-06-17T08:51:01.774Z,68
2017-06-17T08:51:59.497Z,68.3
2017-06-17T08:52:58.424Z,68
2017-06-17T08:53:58.146Z,68.1
2017-06-17T08:55:56.519Z,68.1
2017-06-17T08:56:55.733Z,67.7
2017-06-17T08:57:54.950Z,68.1
2017-06-17T08:58:53.933Z,68.4
2017-06-17T08:59:53.658Z,68.7
2017-06-17T09:00:53.038Z,68.8
2017-06-17T09:01:52.020Z,68.9
2017-06-17T09:02:51.249Z,69.3
2017-06-17T09:03:50.852Z,69.4
2017-06-17T09:04:50.072Z,69.2
2017-06-17T09:05:49.303Z,69.1
2017-06-17T09:06:48.593Z,68.7
2017-06-17T09:07:47.815Z,69.1
2017-06-17T09:08:47.036Z,68.4
2017-06-17T09:09:46.140Z,68.5
2017-06-17T09:10:45.753Z,68.5
2017-06-17T09:11:44.980Z,68.7
2017-06-17T09:12:15.397Z,68.7
2017-06-17T09:13:43.194Z,67.3
2017-06-17T09:14:42.416Z,67.6
2017-06-17T09:15:42.025Z,67.6
2017-06-17T09:16:41.246Z,67.6
2017-06-17T09:17:40.460Z,67
2017-06-17T09:18:39.680Z,67.2
2017-06-17T09:19:38.903Z,67.2
2017-06-17T09:20:38.091Z,67.4
2017-06-17T09:21:37.812Z,67.6
2017-06-17T09:22:36.921Z,67.6
2017-06-17T09:23:36.147Z,67.4
2017-06-17T09:24:35.425Z,67.6
2017-06-17T09:25:34.645Z,67.5
2017-06-17T09:26:33.746Z,67
2017-06-17T09:27:33.470Z,66.9
2017-06-17T09:29:31.578Z,66.3
2017-06-17T09:30:31.064Z,66
2017-06-17T09:31:30.429Z,66.3
2017-06-17T09:32:29.310Z,66.1
2017-06-17T09:33:29.037Z,66.1
2017-06-17T09:34:28.268Z,66.1
2017-06-17T09:35:27.642Z,65.9
2017-06-17T09:36:26.773Z,65.5
2017-06-17T09:37:25.881Z,64.9
2017-06-17T09:38:25.326Z,64.8
2017-06-17T09:39:24.411Z,65
2017-06-17T09:40:24.024Z,65.2
2017-06-17T09:41:23.132Z,65.1
2017-06-17T09:42:22.499Z,65.7
2017-06-17T09:43:21.723Z,65.2
2017-06-17T09:44:20.944Z,64.9
2017-06-17T09:45:20.166Z,64.7
2017-06-17T09:46:19.902Z,65
2017-06-17T09:47:19.133Z,65
2017-06-17T09:48:18.370Z,64.6
2017-06-17T09:49:17.589Z,64.5
2017-06-17T09:50:16.815Z,64.7
2017-06-17T09:51:16.041Z,64.8
2017-06-17T09:52:15.260Z,64.1
2017-06-17T09:53:14.922Z,64.3
2017-06-17T09:55:13.048Z,65.2
2017-06-17T09:56:12.654Z,65.4
2017-06-17T09:57:11.868Z,65.9
2017-06-17T09:58:11.360Z,66.1
2017-06-17T09:59:10.336Z,66.2
2017-06-17T10:01:08.948Z,65.9
2017-06-17T10:02:08.180Z,65.8
2017-06-17T10:03:07.791Z,65.9
2017-06-17T10:04:06.718Z,66.1
2017-06-17T10:05:06.122Z,66.2
2017-06-17T10:06:05.728Z,66.6
2017-06-17T10:07:04.541Z,66.5
2017-06-17T10:08:04.267Z,66.1
2017-06-17T10:09:03.250Z,65.6
2017-06-17T10:10:02.744Z,65.7
2017-06-17T10:11:02.116Z,65.8
2017-06-17T10:13:00.779Z,65.3
2017-06-17T10:13:59.998Z,64.4
2017-06-17T10:14:58.874Z,64.3
2017-06-17T10:15:59.175Z,64.5
2017-06-17T10:16:57.894Z,64.1
2017-06-17T10:17:57.115Z,63.9
2017-06-17T10:18:56.215Z,64.1
2017-06-17T10:19:55.438Z,63.6
2017-06-17T10:20:54.930Z,63.2
2017-06-17T10:21:25.230Z,63.2
2017-06-17T10:21:55.649Z,63.4
2017-06-17T10:22:26.009Z,63.4
2017-06-17T10:22:56.541Z,63.5
2017-06-17T10:23:53.012Z,63.3
2017-06-17T10:24:52.115Z,63.9
2017-06-17T10:26:50.608Z,63.7
2017-06-17T10:27:49.829Z,63.3
2017-06-17T10:28:48.926Z,63.4
2017-06-17T10:29:48.655Z,63.4
2017-06-17T10:30:47.766Z,63
2017-06-17T10:31:46.996Z,62.7
2017-06-17T10:32:46.326Z,62.7
2017-06-17T10:33:45.932Z,62.6
2017-06-17T10:34:45.152Z,62.6
2017-06-17T10:35:44.260Z,62.6
2017-06-17T10:36:43.980Z,62.9
2017-06-17T10:37:43.666Z,62.8
2017-06-17T10:38:42.308Z,62.7
2017-06-17T10:39:41.367Z,62.7
2017-06-17T10:41:40.496Z,61.5
2017-06-17T10:42:39.727Z,61
2017-06-17T10:43:38.825Z,60.8
2017-06-17T10:44:38.053Z,60.6
2017-06-17T10:45:37.276Z,60.5
2017-06-17T10:46:36.884Z,60.9
2017-06-17T10:47:36.330Z,61.4
2017-06-17T10:48:35.573Z,61.2
2017-06-17T10:49:34.677Z,61
2017-06-17T10:50:33.896Z,60.7
2017-06-17T10:51:33.499Z,60.6
2017-06-17T10:52:32.986Z,60.7
2017-06-17T10:53:32.087Z,60.2
2017-06-17T10:54:31.592Z,60.4
2017-06-17T10:55:30.810Z,60.8
2017-06-17T10:56:30.029Z,60.5
2017-06-17T10:57:29.129Z,60.9
2017-06-17T10:58:28.734Z,60.5
2017-06-17T10:59:27.954Z,60.2
2017-06-17T11:00:27.173Z,60.6
2017-06-17T11:01:26.371Z,61
2017-06-17T11:02:26.098Z,60.9
2017-06-17T11:03:25.329Z,60.8
2017-06-17T11:04:25.122Z,60.1
2017-06-17T11:05:23.837Z,60.3
2017-06-17T11:06:23.325Z,60.6
2017-06-17T11:07:22.425Z,60.8
2017-06-17T11:08:21.646Z,61.1
2017-06-17T11:09:21.368Z,61
2017-06-17T11:10:20.590Z,61.4
2017-06-17T11:11:19.818Z,61.5
2017-06-17T11:12:19.040Z,61.5
2017-06-17T11:13:18.261Z,61.8
2017-06-17T11:14:17.875Z,62.1
2017-06-17T11:15:17.098Z,62
2017-06-17T11:16:16.475Z,61.5
2017-06-17T11:17:16.152Z,61.7
2017-06-17T11:18:14.755Z,61.1
2017-06-17T11:19:14.360Z,60.9
2017-06-17T11:20:13.533Z,60
2017-06-17T11:21:13.142Z,59.7
2017-06-17T11:23:11.631Z,58.4
2017-06-17T11:24:11.001Z,57.5
2017-06-17T11:25:10.223Z,57.2
2017-06-17T11:26:09.447Z,57.1
2017-06-17T11:27:09.187Z,57.8
2017-06-17T11:28:08.301Z,58
2017-06-17T11:29:07.515Z,58.6
2017-06-17T11:30:07.121Z,58.8
2017-06-17T11:31:06.349Z,58.1
2017-06-17T11:33:04.844Z,57.7
2017-06-17T11:36:02.851Z,58.7
2017-06-17T11:37:02.459Z,58.4
2017-06-17T11:38:01.627Z,58.2
2017-06-17T11:39:00.811Z,58.1
2017-06-17T11:40:59.424Z,56.7
2017-06-17T11:41:58.781Z,56.4
2017-06-17T11:42:58.160Z,56
2017-06-17T11:43:57.760Z,56.7
2017-06-17T11:44:56.748Z,57
2017-06-17T11:45:56.138Z,57.4
2017-06-17T11:46:55.752Z,57.7
2017-06-17T11:47:54.860Z,57.7
2017-06-17T11:48:54.468Z,57.5
2017-06-17T11:49:53.692Z,57.5
2017-06-17T11:50:52.806Z,58
2017-06-17T11:51:52.419Z,57.6
2017-06-17T11:52:51.641Z,56.5
2017-06-17T11:53:51.133Z,56.5
2017-06-17T11:54:50.323Z,56.6
2017-06-17T11:55:49.545Z,55.7
2017-06-17T11:56:49.268Z,55.2
2017-06-17T11:57:48.367Z,55.4
2017-06-17T11:58:47.858Z,54.9
2017-06-17T11:59:47.088Z,55.1
2017-06-17T12:00:46.316Z,54.9
2017-06-17T12:02:45.321Z,54.8
2017-06-17T12:03:44.544Z,54.6
2017-06-17T12:04:43.768Z,55
2017-06-17T12:05:43.375Z,54.1
2017-06-17T12:06:42.601Z,53.6
2017-06-17T12:07:41.708Z,54.3
2017-06-17T12:08:41.432Z,53.7
2017-06-17T12:10:40.051Z,53.2
2017-06-17T12:11:39.270Z,53.2
2017-06-17T12:12:38.880Z,53.4
2017-06-17T12:13:38.159Z,53.8
2017-06-17T12:14:37.387Z,53.9
2017-06-17T12:15:36.493Z,54.5
2017-06-17T12:16:36.218Z,54.9
2017-06-17T12:18:34.593Z,55.3
2017-06-17T12:19:34.318Z,55.6
2017-06-17T12:20:33.539Z,55.9
2017-06-17T12:21:32.648Z,56.1
2017-06-17T12:22:32.452Z,56
2017-06-17T12:23:31.742Z,55.8
2017-06-17T12:24:30.732Z,55.3
2017-06-17T12:25:30.225Z,54.9
2017-06-17T12:26:29.448Z,54.5
2017-06-17T12:27:29.177Z,54.4
2017-06-17T12:28:28.278Z,54.4
2017-06-17T12:29:27.771Z,53.1
2017-06-17T12:30:27.053Z,53.4
2017-06-17T12:31:26.276Z,53.4
2017-06-17T12:32:25.565Z,52.8
2017-06-17T12:33:25.289Z,51.8
2017-06-17T12:34:24.394Z,51.9
2017-06-17T12:35:24.002Z,52.7
2017-06-17T12:36:23.785Z,52.8
2017-06-17T12:37:22.395Z,54.2
2017-06-17T12:38:21.884Z,54.4
2017-06-17T12:38:52.426Z,54.4
2017-06-17T12:39:22.911Z,53.8
2017-06-17T12:39:53.444Z,53.8
2017-06-17T12:41:19.850Z,51.5
2017-06-17T12:42:19.579Z,51.1
2017-06-17T12:43:18.802Z,50.6
2017-06-17T12:44:18.058Z,50.7
2017-06-17T12:45:17.665Z,51.5
2017-06-17T12:46:16.893Z,52.6
2017-06-17T12:47:16.113Z,52.1
2017-06-17T12:48:15.842Z,52.4
2017-06-17T12:49:14.708Z,52
2017-06-17T12:50:14.315Z,51.9
2017-06-17T12:51:13.928Z,51.4
2017-06-17T12:52:13.225Z,51.6
2017-06-17T12:53:12.449Z,51.7
2017-06-17T12:54:11.686Z,51.6
2017-06-17T12:55:11.297Z,50.4
2017-06-17T12:56:10.521Z,51
2017-06-17T12:57:10.254Z,51.4
2017-06-17T12:58:09.474Z,51.1
2017-06-17T12:59:08.695Z,51.1
2017-06-17T13:00:08.302Z,50.4
2017-06-17T13:00:38.904Z,50.4
2017-06-17T13:01:09.437Z,50.8
2017-06-17T13:02:07.150Z,51
2017-06-17T13:03:06.257Z,51.4
2017-06-17T13:04:05.864Z,50.8
2017-06-17T13:05:04.847Z,51.5
2017-06-17T13:06:04.347Z,50.7
2017-06-17T13:07:03.955Z,50.6
2017-06-17T13:08:03.067Z,50
2017-06-17T13:09:02.676Z,50.3
2017-06-17T13:10:01.776Z,51.3
2017-06-17T13:11:01.279Z,51.2
2017-06-17T13:12:00.766Z,50.9
2017-06-17T13:13:59.878Z,51.7
2017-06-17T13:14:59.098Z,51.1
2017-06-17T13:15:58.229Z,51.4
2017-06-17T13:16:57.835Z,50.2
2017-06-17T13:17:57.325Z,49.7
2017-06-17T13:18:56.308Z,49.6
2017-06-17T13:19:56.027Z,49.7
2017-06-17T13:20:55.128Z,50.4
2017-06-17T13:21:54.512Z,51.3
2017-06-17T13:22:54.077Z,51
2017-06-17T13:23:53.682Z,51
2017-06-17T13:24:52.849Z,51.2
2017-06-17T13:25:52.464Z,51.5
2017-06-17T13:26:51.453Z,51.2
2017-06-17T13:27:51.186Z,51.1
2017-06-17T13:28:50.410Z,51
2017-06-17T13:29:50.024Z,51.4
2017-06-17T13:30:49.709Z,51.8
2017-06-17T13:31:48.826Z,52.3
2017-06-17T13:32:47.930Z,52.4
2017-06-17T13:33:47.428Z,52.5
2017-06-17T13:34:46.919Z,52.9
2017-06-17T13:35:46.140Z,52.2
2017-06-17T13:37:45.339Z,50.8
2017-06-17T13:38:44.446Z,50.6
2017-06-17T13:39:43.550Z,50.5
2017-06-17T13:40:43.283Z,51
2017-06-17T13:41:42.510Z,51.5
2017-06-17T13:42:41.732Z,51.8
2017-06-17T13:43:41.452Z,51.7
2017-06-17T13:44:40.669Z,51.7
2017-06-17T13:45:39.768Z,51.3
2017-06-17T13:46:39.376Z,50.6
2017-06-17T13:47:38.601Z,50.5
2017-06-17T13:48:38.208Z,49.5
2017-06-17T13:49:37.435Z,49.2
2017-06-17T13:50:37.046Z,47.7
2017-06-17T13:51:36.279Z,47.7
2017-06-17T13:52:35.922Z,47.1
2017-06-17T13:53:35.213Z,47.5
2017-06-17T13:54:34.715Z,46.9
2017-06-17T13:55:33.944Z,47.8
2017-06-17T13:56:33.046Z,47.3
2017-06-17T13:58:32.067Z,47.6
2017-06-17T13:59:31.287Z,48.5
2017-06-17T14:00:31.025Z,48.3
2017-06-17T14:01:30.260Z,48.4
2017-06-17T14:02:29.541Z,48.5
2017-06-17T14:03:29.143Z,48.9
2017-06-17T14:04:28.927Z,49.8
2017-06-17T14:05:27.652Z,50.6
2017-06-17T14:06:27.267Z,51.6
2017-06-17T14:07:26.876Z,52.1
2017-06-17T14:08:26.165Z,52.5
2017-06-17T14:09:25.310Z,52.3
2017-06-17T14:10:25.037Z,51.8
2017-06-17T14:11:24.026Z,51.5
2017-06-17T14:12:23.633Z,50.1
2017-06-17T14:13:22.864Z,49.9
2017-06-17T14:14:22.533Z,48.3
2017-06-17T14:15:21.643Z,48.4
2017-06-17T14:16:21.249Z,48.8
2017-06-17T14:17:20.546Z,48.8
2017-06-17T14:18:20.154Z,49.2
2017-06-17T14:19:19.379Z,50.5
2017-06-17T14:20:18.994Z,50.8
2017-06-17T14:21:18.218Z,50.9
2017-06-17T14:23:17.090Z,50.2